sensor_id;sensor_type;location;lat;lon;timestamp;pressure;altitude;pressure_sealevel;temperature;humidity
38612;BME280;24368;52.156;20.788;2023-04-09T00:03:55;101161.36;;;8.23;100.00
38612;BME280;24368;52.156;20.788;2023-04-09T00:08:56;101159.66;;;8.11;100.00
38612;BME280;24368;52.156;20.788;2023-04-09T00:13:58;101157.60;;;7.96;100.00
38612;BME280;24368;52.156;20.788;2023-04-09T00:18:59;101156.45;;;7.89;100.00
38612;BME280;24368;52.156;20.788;2023-04-09T00:24:00;101158.09;;;7.85;100.00
38612;BME280;24368;52.156;20.788;2023-04-09T00:29:02;101153.33;;;7.90;100.00
38612;BME280;24368;52.156;20.788;2023-04-09T00:34:03;101150.59;;;7.99;100.00
38612;BME280;24368;52.156;20.788;2023-04-09T00:39:05;101151.14;;;8.01;100.00
38612;BME280;24368;52.156;20.788;2023-04-09T00:44:06;101147.52;;;8.02;100.00
38612;BME280;24368;52.156;20.788;2023-04-09T00:49:07;101139.67;;;7.95;100.00
38612;BME280;24368;52.156;20.788;2023-04-09T00:54:08;101138.60;;;7.85;100.00
38612;BME280;24368;52.156;20.788;2023-04-09T00:59:10;101134.50;;;7.80;100.00
38612;BME280;24368;52.156;20.788;2023-04-09T01:04:11;101131.50;;;7.78;100.00
38612;BME280;24368;52.156;20.788;2023-04-09T01:09:26;101134.33;;;7.73;100.00
38612;BME280;24368;52.156;20.788;2023-04-09T01:14:38;101134.39;;;7.72;100.00
38612;BME280;24368;52.156;20.788;2023-04-09T01:19:47;101141.43;;;7.76;100.00
38612;BME280;24368;52.156;20.788;2023-04-09T01:30:09;101144.14;;;7.61;100.00
38612;BME280;24368;52.156;20.788;2023-04-09T01:35:12;101150.65;;;7.70;100.00
38612;BME280;24368;52.156;20.788;2023-04-09T01:40:14;101148.10;;;7.74;100.00
38612;BME280;24368;52.156;20.788;2023-04-09T01:45:17;101149.83;;;7.65;100.00
38612;BME280;24368;52.156;20.788;2023-04-09T01:50:18;101153.71;;;7.60;100.00
38612;BME280;24368;52.156;20.788;2023-04-09T01:55:19;101158.73;;;7.63;100.00
38612;BME280;24368;52.156;20.788;2023-04-09T02:00:21;101166.65;;;7.75;100.00
38612;BME280;24368;52.156;20.788;2023-04-09T02:05:24;101170.84;;;7.75;100.00
38612;BME280;24368;52.156;20.788;2023-04-09T02:10:30;101169.70;;;7.74;100.00
38612;BME280;24368;52.156;20.788;2023-04-09T02:15:35;101170.34;;;7.84;100.00
38612;BME280;24368;52.156;20.788;2023-04-09T02:20:38;101166.61;;;7.77;100.00
38612;BME280;24368;52.156;20.788;2023-04-09T02:25:39;101165.33;;;7.75;100.00
38612;BME280;24368;52.156;20.788;2023-04-09T02:30:40;101164.48;;;7.71;100.00
38612;BME280;24368;52.156;20.788;2023-04-09T02:35:41;101171.04;;;7.70;100.00
38612;BME280;24368;52.156;20.788;2023-04-09T02:40:43;101164.54;;;7.72;100.00
38612;BME280;24368;52.156;20.788;2023-04-09T02:45:44;101164.31;;;7.75;100.00
38612;BME280;24368;52.156;20.788;2023-04-09T02:50:45;101163.13;;;7.65;100.00
38612;BME280;24368;52.156;20.788;2023-04-09T02:55:46;101163.96;;;7.61;100.00
38612;BME280;24368;52.156;20.788;2023-04-09T03:00:47;101161.68;;;7.61;100.00
38612;BME280;24368;52.156;20.788;2023-04-09T03:05:48;101159.35;;;7.61;100.00
38612;BME280;24368;52.156;20.788;2023-04-09T03:10:50;101153.05;;;7.73;100.00
38612;BME280;24368;52.156;20.788;2023-04-09T03:15:51;101152.08;;;7.79;100.00
38612;BME280;24368;52.156;20.788;2023-04-09T03:20:53;101159.62;;;7.82;100.00
38612;BME280;24368;52.156;20.788;2023-04-09T03:26:03;101158.86;;;7.82;100.00
38612;BME280;24368;52.156;20.788;2023-04-09T03:31:05;101159.73;;;7.75;100.00
38612;BME280;24368;52.156;20.788;2023-04-09T03:36:06;101155.23;;;7.65;100.00
38612;BME280;24368;52.156;20.788;2023-04-09T03:41:08;101156.46;;;7.53;100.00
38612;BME280;24368;52.156;20.788;2023-04-09T03:46:11;101154.55;;;7.44;100.00
38612;BME280;24368;52.156;20.788;2023-04-09T03:51:13;101146.33;;;7.32;100.00
38612;BME280;24368;52.156;20.788;2023-04-09T03:56:15;101136.34;;;7.41;100.00
38612;BME280;24368;52.156;20.788;2023-04-09T04:01:16;101130.75;;;7.41;100.00
38612;BME280;24368;52.156;20.788;2023-04-09T04:06:17;101128.98;;;7.39;100.00
38612;BME280;24368;52.156;20.788;2023-04-09T04:11:18;101143.19;;;7.53;100.00
38612;BME280;24368;52.156;20.788;2023-04-09T04:16:19;101149.43;;;7.47;100.00
38612;BME280;24368;52.156;20.788;2023-04-09T04:21:20;101147.36;;;7.48;100.00
38612;BME280;24368;52.156;20.788;2023-04-09T04:26:21;101145.74;;;7.49;100.00
38612;BME280;24368;52.156;20.788;2023-04-09T04:31:22;101142.90;;;7.52;100.00
38612;BME280;24368;52.156;20.788;2023-04-09T04:36:23;101146.44;;;7.56;100.00
38612;BME280;24368;52.156;20.788;2023-04-09T04:41:24;101157.56;;;7.51;100.00
38612;BME280;24368;52.156;20.788;2023-04-09T04:46:25;101166.38;;;7.43;100.00
38612;BME280;24368;52.156;20.788;2023-04-09T04:51:29;101171.79;;;7.48;100.00
38612;BME280;24368;52.156;20.788;2023-04-09T04:56:31;101181.28;;;7.47;100.00
38612;BME280;24368;52.156;20.788;2023-04-09T05:01:32;101183.98;;;7.42;100.00
38612;BME280;24368;52.156;20.788;2023-04-09T05:06:33;101182.67;;;7.41;100.00
38612;BME280;24368;52.156;20.788;2023-04-09T05:11:34;101188.12;;;7.33;100.00
38612;BME280;24368;52.156;20.788;2023-04-09T05:16:35;101184.77;;;7.29;100.00
38612;BME280;24368;52.156;20.788;2023-04-09T05:21:37;101187.35;;;7.34;100.00
38612;BME280;24368;52.156;20.788;2023-04-09T05:26:38;101181.95;;;7.39;100.00
38612;BME280;24368;52.156;20.788;2023-04-09T05:31:40;101182.20;;;7.47;100.00
38612;BME280;24368;52.156;20.788;2023-04-09T05:36:42;101185.25;;;7.53;100.00
38612;BME280;24368;52.156;20.788;2023-04-09T05:41:43;101186.14;;;7.60;100.00
38612;BME280;24368;52.156;20.788;2023-04-09T05:46:44;101188.20;;;7.63;100.00
38612;BME280;24368;52.156;20.788;2023-04-09T05:51:45;101187.23;;;7.65;100.00
38612;BME280;24368;52.156;20.788;2023-04-09T05:56:46;101185.45;;;7.74;100.00
38612;BME280;24368;52.156;20.788;2023-04-09T06:01:48;101187.17;;;7.86;100.00
38612;BME280;24368;52.156;20.788;2023-04-09T06:06:49;101196.96;;;7.96;100.00
38612;BME280;24368;52.156;20.788;2023-04-09T06:11:51;101195.26;;;8.06;100.00
38612;BME280;24368;52.156;20.788;2023-04-09T06:16:52;101199.95;;;8.07;100.00
38612;BME280;24368;52.156;20.788;2023-04-09T06:21:53;101198.29;;;8.13;100.00
38612;BME280;24368;52.156;20.788;2023-04-09T06:26:54;101201.79;;;8.29;100.00
38612;BME280;24368;52.156;20.788;2023-04-09T06:31:55;101206.41;;;8.42;100.00
38612;BME280;24368;52.156;20.788;2023-04-09T06:36:56;101207.48;;;8.49;100.00
38612;BME280;24368;52.156;20.788;2023-04-09T06:41:58;101209.55;;;8.56;100.00
38612;BME280;24368;52.156;20.788;2023-04-09T06:46:59;101209.58;;;8.63;100.00
38612;BME280;24368;52.156;20.788;2023-04-09T06:52:00;101206.51;;;8.64;100.00
38612;BME280;24368;52.156;20.788;2023-04-09T06:57:01;101203.02;;;8.77;100.00
38612;BME280;24368;52.156;20.788;2023-04-09T07:02:03;101209.73;;;8.92;100.00
38612;BME280;24368;52.156;20.788;2023-04-09T07:07:04;101213.23;;;9.07;100.00
38612;BME280;24368;52.156;20.788;2023-04-09T07:12:05;101219.65;;;9.26;100.00
38612;BME280;24368;52.156;20.788;2023-04-09T07:17:07;101219.45;;;9.39;100.00
38612;BME280;24368;52.156;20.788;2023-04-09T07:22:08;101223.46;;;9.58;100.00
38612;BME280;24368;52.156;20.788;2023-04-09T07:27:09;101226.09;;;9.84;100.00
38612;BME280;24368;52.156;20.788;2023-04-09T07:32:10;101226.31;;;9.92;100.00
38612;BME280;24368;52.156;20.788;2023-04-09T07:37:11;101225.63;;;10.02;100.00
38612;BME280;24368;52.156;20.788;2023-04-09T07:42:12;101229.92;;;10.08;100.00
38612;BME280;24368;52.156;20.788;2023-04-09T07:47:14;101229.64;;;10.07;100.00
38612;BME280;24368;52.156;20.788;2023-04-09T07:52:15;101228.88;;;10.08;100.00
38612;BME280;24368;52.156;20.788;2023-04-09T07:57:16;101233.34;;;10.17;100.00
38612;BME280;24368;52.156;20.788;2023-04-09T08:02:17;101231.14;;;10.21;100.00
38612;BME280;24368;52.156;20.788;2023-04-09T08:07:19;101231.45;;;10.40;100.00
38612;BME280;24368;52.156;20.788;2023-04-09T08:12:20;101231.00;;;10.58;100.00
38612;BME280;24368;52.156;20.788;2023-04-09T08:17:21;101229.71;;;10.54;100.00
38612;BME280;24368;52.156;20.788;2023-04-09T08:22:23;101234.59;;;10.65;100.00
38612;BME280;24368;52.156;20.788;2023-04-09T08:27:24;101234.09;;;10.65;100.00
38612;BME280;24368;52.156;20.788;2023-04-09T08:32:25;101227.73;;;10.61;100.00
38612;BME280;24368;52.156;20.788;2023-04-09T08:37:27;101229.98;;;10.73;100.00
38612;BME280;24368;52.156;20.788;2023-04-09T08:42:30;101231.23;;;10.79;100.00
38612;BME280;24368;52.156;20.788;2023-04-09T08:47:32;101233.69;;;10.83;100.00
38612;BME280;24368;52.156;20.788;2023-04-09T08:52:34;101233.58;;;10.99;100.00
38612;BME280;24368;52.156;20.788;2023-04-09T08:57:40;101229.53;;;11.26;100.00
38612;BME280;24368;52.156;20.788;2023-04-09T09:03:20;101229.73;;;11.54;100.00
38612;BME280;24368;52.156;20.788;2023-04-09T09:08:23;101229.66;;;11.61;100.00
38612;BME280;24368;52.156;20.788;2023-04-09T09:13:26;101226.67;;;11.64;100.00
38612;BME280;24368;52.156;20.788;2023-04-09T09:18:42;101236.04;;;11.62;100.00
38612;BME280;24368;52.156;20.788;2023-04-09T09:23:44;101240.58;;;11.55;100.00
38612;BME280;24368;52.156;20.788;2023-04-09T09:28:48;101245.70;;;11.45;100.00
38612;BME280;24368;52.156;20.788;2023-04-09T09:33:50;101247.11;;;11.37;100.00
38612;BME280;24368;52.156;20.788;2023-04-09T09:38:53;101249.13;;;11.32;100.00
38612;BME280;24368;52.156;20.788;2023-04-09T09:43:55;101246.70;;;11.26;100.00
38612;BME280;24368;52.156;20.788;2023-04-09T09:48:56;101246.52;;;11.22;100.00
38612;BME280;24368;52.156;20.788;2023-04-09T09:53:58;101247.71;;;11.20;100.00
38612;BME280;24368;52.156;20.788;2023-04-09T10:04:05;101243.23;;;11.11;100.00
38612;BME280;24368;52.156;20.788;2023-04-09T10:09:13;101241.64;;;11.35;100.00
38612;BME280;24368;52.156;20.788;2023-04-09T10:14:15;101240.33;;;11.54;100.00
38612;BME280;24368;52.156;20.788;2023-04-09T10:19:18;101230.58;;;11.85;100.00
38612;BME280;24368;52.156;20.788;2023-04-09T10:24:20;101226.85;;;12.46;99.90
38612;BME280;24368;52.156;20.788;2023-04-09T10:29:28;101225.92;;;12.86;98.87
38612;BME280;24368;52.156;20.788;2023-04-09T10:34:34;101228.33;;;12.90;99.05
38612;BME280;24368;52.156;20.788;2023-04-09T10:39:43;101225.55;;;13.17;100.00
38612;BME280;24368;52.156;20.788;2023-04-09T10:44:44;101223.48;;;13.07;99.82
38612;BME280;24368;52.156;20.788;2023-04-09T10:49:48;101225.99;;;12.80;98.73
38612;BME280;24368;52.156;20.788;2023-04-09T10:54:49;101220.91;;;12.53;98.53
38612;BME280;24368;52.156;20.788;2023-04-09T10:59:52;101219.16;;;12.47;99.46
38612;BME280;24368;52.156;20.788;2023-04-09T11:10:19;101219.27;;;12.68;100.00
38612;BME280;24368;52.156;20.788;2023-04-09T11:15:23;101216.89;;;13.19;98.98
38612;BME280;24368;52.156;20.788;2023-04-09T11:20:25;101212.23;;;13.94;93.79
38612;BME280;24368;52.156;20.788;2023-04-09T11:25:28;101216.06;;;13.89;90.65
38612;BME280;24368;52.156;20.788;2023-04-09T11:30:30;101203.95;;;14.44;90.08
38612;BME280;24368;52.156;20.788;2023-04-09T11:35:33;101200.70;;;15.04;85.58
38612;BME280;24368;52.156;20.788;2023-04-09T11:40:36;101195.91;;;15.59;83.82
38612;BME280;24368;52.156;20.788;2023-04-09T11:45:45;101195.98;;;14.95;83.30
38612;BME280;24368;52.156;20.788;2023-04-09T11:50:49;101196.38;;;14.81;87.21
38612;BME280;24368;52.156;20.788;2023-04-09T11:55:51;101194.84;;;14.64;87.90
38612;BME280;24368;52.156;20.788;2023-04-09T12:01:01;101194.48;;;14.33;88.18
38612;BME280;24368;52.156;20.788;2023-04-09T12:06:05;101197.34;;;13.85;88.53
38612;BME280;24368;52.156;20.788;2023-04-09T12:11:11;101194.10;;;13.67;90.42
38612;BME280;24368;52.156;20.788;2023-04-09T12:16:13;101192.20;;;13.43;90.32
38612;BME280;24368;52.156;20.788;2023-04-09T12:21:14;101192.88;;;13.14;90.47
38612;BME280;24368;52.156;20.788;2023-04-09T12:26:17;101192.86;;;13.11;90.94
38612;BME280;24368;52.156;20.788;2023-04-09T12:31:18;101192.91;;;14.06;88.56
38612;BME280;24368;52.156;20.788;2023-04-09T12:36:19;101195.04;;;13.57;86.00
38612;BME280;24368;52.156;20.788;2023-04-09T12:41:20;101196.36;;;13.24;86.77
38612;BME280;24368;52.156;20.788;2023-04-09T12:46:22;101195.00;;;13.18;86.49
38612;BME280;24368;52.156;20.788;2023-04-09T12:51:23;101190.40;;;13.08;85.87
38612;BME280;24368;52.156;20.788;2023-04-09T12:56:25;101186.48;;;13.08;86.52
38612;BME280;24368;52.156;20.788;2023-04-09T13:01:27;101187.05;;;13.18;87.11
38612;BME280;24368;52.156;20.788;2023-04-09T13:06:28;101179.83;;;13.43;86.53
38612;BME280;24368;52.156;20.788;2023-04-09T13:11:29;101174.44;;;13.93;84.09
38612;BME280;24368;52.156;20.788;2023-04-09T13:16:30;101169.52;;;14.19;81.31
38612;BME280;24368;52.156;20.788;2023-04-09T13:21:32;101171.16;;;14.49;80.07
38612;BME280;24368;52.156;20.788;2023-04-09T13:26:33;101167.23;;;16.21;72.39
38612;BME280;24368;52.156;20.788;2023-04-09T13:31:35;101163.65;;;16.75;69.36
38612;BME280;24368;52.156;20.788;2023-04-09T13:36:37;101157.78;;;19.15;60.44
38612;BME280;24368;52.156;20.788;2023-04-09T13:41:38;101160.73;;;17.50;63.14
38612;BME280;24368;52.156;20.788;2023-04-09T13:46:40;101156.52;;;15.52;71.14
38612;BME280;24368;52.156;20.788;2023-04-09T13:51:41;101153.81;;;14.91;73.92
38612;BME280;24368;52.156;20.788;2023-04-09T13:56:43;101152.73;;;14.65;76.03
38612;BME280;24368;52.156;20.788;2023-04-09T14:01:44;101152.02;;;14.51;80.14
38612;BME280;24368;52.156;20.788;2023-04-09T14:06:45;101148.52;;;14.38;81.22
38612;BME280;24368;52.156;20.788;2023-04-09T14:11:47;101143.80;;;14.33;82.79
38612;BME280;24368;52.156;20.788;2023-04-09T14:16:49;101141.56;;;14.68;79.93
38612;BME280;24368;52.156;20.788;2023-04-09T14:21:50;101137.66;;;16.22;73.73
38612;BME280;24368;52.156;20.788;2023-04-09T14:26:53;101140.38;;;15.68;75.46
38612;BME280;24368;52.156;20.788;2023-04-09T14:31:54;101138.61;;;15.14;80.47
38612;BME280;24368;52.156;20.788;2023-04-09T14:36:55;101140.27;;;15.30;82.44
38612;BME280;24368;52.156;20.788;2023-04-09T14:41:56;101143.86;;;15.69;82.77
38612;BME280;24368;52.156;20.788;2023-04-09T14:46:57;101136.39;;;15.12;85.92
38612;BME280;24368;52.156;20.788;2023-04-09T14:51:59;101132.44;;;14.82;87.13
38612;BME280;24368;52.156;20.788;2023-04-09T14:57:00;101131.02;;;14.57;87.84
38612;BME280;24368;52.156;20.788;2023-04-09T15:02:02;101133.59;;;14.47;87.13
38612;BME280;24368;52.156;20.788;2023-04-09T15:07:04;101130.11;;;14.85;84.29
38612;BME280;24368;52.156;20.788;2023-04-09T15:12:07;101131.95;;;16.18;77.71
38612;BME280;24368;52.156;20.788;2023-04-09T15:17:09;101133.17;;;17.45;72.00
38612;BME280;24368;52.156;20.788;2023-04-09T15:22:10;101127.05;;;17.82;70.04
38612;BME280;24368;52.156;20.788;2023-04-09T15:27:11;101124.83;;;17.78;67.30
38612;BME280;24368;52.156;20.788;2023-04-09T15:32:13;101121.09;;;17.52;67.24
38612;BME280;24368;52.156;20.788;2023-04-09T15:37:14;101119.58;;;16.51;69.98
38612;BME280;24368;52.156;20.788;2023-04-09T15:42:15;101122.50;;;16.05;70.46
38612;BME280;24368;52.156;20.788;2023-04-09T15:47:22;101126.28;;;16.22;69.87
38612;BME280;24368;52.156;20.788;2023-04-09T15:52:23;101125.88;;;15.59;70.82
38612;BME280;24368;52.156;20.788;2023-04-09T15:57:25;101128.70;;;14.91;73.89
38612;BME280;24368;52.156;20.788;2023-04-09T16:02:27;101131.05;;;14.75;76.46
38612;BME280;24368;52.156;20.788;2023-04-09T16:07:28;101132.84;;;14.81;76.40
38612;BME280;24368;52.156;20.788;2023-04-09T16:12:29;101138.67;;;14.46;77.72
38612;BME280;24368;52.156;20.788;2023-04-09T16:17:30;101140.20;;;14.21;80.31
38612;BME280;24368;52.156;20.788;2023-04-09T16:22:32;101143.16;;;14.13;82.07
38612;BME280;24368;52.156;20.788;2023-04-09T16:27:33;101141.21;;;14.03;83.91
38612;BME280;24368;52.156;20.788;2023-04-09T16:32:34;101144.95;;;13.94;86.01
38612;BME280;24368;52.156;20.788;2023-04-09T16:37:36;101140.64;;;14.08;86.01
38612;BME280;24368;52.156;20.788;2023-04-09T16:42:38;101140.14;;;13.98;87.21
38612;BME280;24368;52.156;20.788;2023-04-09T16:47:39;101149.10;;;13.54;90.21
38612;BME280;24368;52.156;20.788;2023-04-09T16:52:41;101148.58;;;13.35;91.13
38612;BME280;24368;52.156;20.788;2023-04-09T16:57:43;101154.80;;;13.24;91.92
38612;BME280;24368;52.156;20.788;2023-04-09T17:02:44;101157.48;;;13.07;92.41
38612;BME280;24368;52.156;20.788;2023-04-09T17:07:45;101158.34;;;12.91;93.21
38612;BME280;24368;52.156;20.788;2023-04-09T17:12:47;101165.84;;;12.80;94.05
38612;BME280;24368;52.156;20.788;2023-04-09T17:17:48;101169.48;;;12.68;94.88
38612;BME280;24368;52.156;20.788;2023-04-09T17:22:53;101170.67;;;12.55;95.94
38612;BME280;24368;52.156;20.788;2023-04-09T17:27:54;101168.92;;;12.47;95.19
38612;BME280;24368;52.156;20.788;2023-04-09T17:32:55;101174.61;;;12.38;94.95
38612;BME280;24368;52.156;20.788;2023-04-09T17:37:56;101179.00;;;12.36;95.24
38612;BME280;24368;52.156;20.788;2023-04-09T17:42:57;101180.39;;;12.33;95.02
38612;BME280;24368;52.156;20.788;2023-04-09T17:48:00;101184.02;;;12.24;95.74
38612;BME280;24368;52.156;20.788;2023-04-09T17:53:01;101194.48;;;12.20;95.97
38612;BME280;24368;52.156;20.788;2023-04-09T17:58:03;101200.23;;;12.13;97.14
38612;BME280;24368;52.156;20.788;2023-04-09T18:03:04;101201.73;;;12.07;98.79
38612;BME280;24368;52.156;20.788;2023-04-09T18:08:05;101207.77;;;12.11;99.65
38612;BME280;24368;52.156;20.788;2023-04-09T18:13:07;101211.48;;;12.14;100.00
38612;BME280;24368;52.156;20.788;2023-04-09T18:18:10;101213.10;;;12.12;100.00
38612;BME280;24368;52.156;20.788;2023-04-09T18:23:11;101214.86;;;12.05;100.00
38612;BME280;24368;52.156;20.788;2023-04-09T18:28:13;101227.02;;;11.99;100.00
38612;BME280;24368;52.156;20.788;2023-04-09T18:33:14;101230.96;;;11.91;100.00
38612;BME280;24368;52.156;20.788;2023-04-09T18:38:15;101232.65;;;11.84;100.00
38612;BME280;24368;52.156;20.788;2023-04-09T18:43:17;101234.59;;;11.76;100.00
38612;BME280;24368;52.156;20.788;2023-04-09T18:48:18;101240.98;;;11.77;100.00
38612;BME280;24368;52.156;20.788;2023-04-09T18:53:20;101241.83;;;11.84;100.00
38612;BME280;24368;52.156;20.788;2023-04-09T18:58:21;101234.16;;;11.85;100.00
38612;BME280;24368;52.156;20.788;2023-04-09T19:03:22;101240.38;;;11.80;100.00
38612;BME280;24368;52.156;20.788;2023-04-09T19:08:23;101235.17;;;11.72;100.00
38612;BME280;24368;52.156;20.788;2023-04-09T19:13:25;101239.94;;;11.64;100.00
38612;BME280;24368;52.156;20.788;2023-04-09T19:18:26;101240.02;;;11.57;100.00
38612;BME280;24368;52.156;20.788;2023-04-09T19:23:27;101241.86;;;11.54;100.00
38612;BME280;24368;52.156;20.788;2023-04-09T19:28:30;101234.81;;;11.60;100.00
38612;BME280;24368;52.156;20.788;2023-04-09T19:33:32;101236.86;;;11.63;100.00
38612;BME280;24368;52.156;20.788;2023-04-09T19:38:33;101238.43;;;11.71;100.00
38612;BME280;24368;52.156;20.788;2023-04-09T19:43:34;101238.35;;;11.77;100.00
38612;BME280;24368;52.156;20.788;2023-04-09T19:48:36;101240.02;;;11.74;100.00
38612;BME280;24368;52.156;20.788;2023-04-09T19:53:38;101242.34;;;11.68;100.00
38612;BME280;24368;52.156;20.788;2023-04-09T19:58:41;101246.10;;;11.58;100.00
38612;BME280;24368;52.156;20.788;2023-04-09T20:03:43;101246.03;;;11.41;100.00
38612;BME280;24368;52.156;20.788;2023-04-09T20:08:44;101246.66;;;11.38;100.00
38612;BME280;24368;52.156;20.788;2023-04-09T20:13:45;101247.56;;;11.32;100.00
38612;BME280;24368;52.156;20.788;2023-04-09T20:18:47;101245.96;;;11.28;100.00
38612;BME280;24368;52.156;20.788;2023-04-09T20:23:49;101242.17;;;11.31;100.00
38612;BME280;24368;52.156;20.788;2023-04-09T20:28:50;101244.11;;;11.29;100.00
38612;BME280;24368;52.156;20.788;2023-04-09T20:33:51;101242.96;;;11.22;100.00
38612;BME280;24368;52.156;20.788;2023-04-09T20:38:52;101242.21;;;11.05;100.00
38612;BME280;24368;52.156;20.788;2023-04-09T20:43:53;101247.40;;;10.96;100.00
38612;BME280;24368;52.156;20.788;2023-04-09T20:48:55;101247.95;;;10.96;100.00
38612;BME280;24368;52.156;20.788;2023-04-09T20:53:57;101250.04;;;10.94;100.00
38612;BME280;24368;52.156;20.788;2023-04-09T20:58:59;101255.38;;;10.95;100.00
38612;BME280;24368;52.156;20.788;2023-04-09T21:04:01;101249.11;;;10.92;100.00
38612;BME280;24368;52.156;20.788;2023-04-09T21:09:03;101243.07;;;10.81;100.00
38612;BME280;24368;52.156;20.788;2023-04-09T21:14:04;101241.56;;;10.78;100.00
38612;BME280;24368;52.156;20.788;2023-04-09T21:19:06;101241.16;;;10.65;100.00
38612;BME280;24368;52.156;20.788;2023-04-09T21:24:07;101238.82;;;10.57;100.00
38612;BME280;24368;52.156;20.788;2023-04-09T21:29:08;101240.83;;;10.52;100.00
38612;BME280;24368;52.156;20.788;2023-04-09T21:34:10;101244.35;;;10.41;100.00
38612;BME280;24368;52.156;20.788;2023-04-09T21:39:11;101248.55;;;10.38;100.00
38612;BME280;24368;52.156;20.788;2023-04-09T21:44:12;101249.67;;;10.18;100.00
38612;BME280;24368;52.156;20.788;2023-04-09T21:49:14;101248.48;;;9.88;100.00
38612;BME280;24368;52.156;20.788;2023-04-09T21:54:15;101249.50;;;9.65;100.00
38612;BME280;24368;52.156;20.788;2023-04-09T21:59:16;101249.72;;;9.51;100.00
38612;BME280;24368;52.156;20.788;2023-04-09T22:04:17;101251.21;;;9.42;100.00
38612;BME280;24368;52.156;20.788;2023-04-09T22:09:19;101257.69;;;9.40;100.00
38612;BME280;24368;52.156;20.788;2023-04-09T22:14:20;101258.65;;;9.48;100.00
38612;BME280;24368;52.156;20.788;2023-04-09T22:19:22;101257.90;;;9.50;100.00
38612;BME280;24368;52.156;20.788;2023-04-09T22:24:23;101254.94;;;9.46;100.00
38612;BME280;24368;52.156;20.788;2023-04-09T22:29:28;101251.67;;;9.37;100.00
38612;BME280;24368;52.156;20.788;2023-04-09T22:34:29;101254.27;;;9.28;100.00
38612;BME280;24368;52.156;20.788;2023-04-09T22:39:30;101254.91;;;9.23;100.00
38612;BME280;24368;52.156;20.788;2023-04-09T22:44:31;101258.45;;;9.02;100.00
38612;BME280;24368;52.156;20.788;2023-04-09T22:49:32;101251.37;;;8.92;100.00
38612;BME280;24368;52.156;20.788;2023-04-09T22:54:33;101251.48;;;8.86;100.00
38612;BME280;24368;52.156;20.788;2023-04-09T22:59:35;101255.36;;;8.81;100.00
38612;BME280;24368;52.156;20.788;2023-04-09T23:04:36;101252.85;;;8.78;100.00
38612;BME280;24368;52.156;20.788;2023-04-09T23:09:37;101254.45;;;8.71;100.00
38612;BME280;24368;52.156;20.788;2023-04-09T23:14:38;101253.75;;;8.61;100.00
38612;BME280;24368;52.156;20.788;2023-04-09T23:19:39;101253.14;;;8.46;100.00
38612;BME280;24368;52.156;20.788;2023-04-09T23:24:40;101254.62;;;8.29;100.00
38612;BME280;24368;52.156;20.788;2023-04-09T23:29:41;101250.16;;;8.35;100.00
38612;BME280;24368;52.156;20.788;2023-04-09T23:34:42;101251.23;;;8.21;100.00
38612;BME280;24368;52.156;20.788;2023-04-09T23:39:45;101245.83;;;8.04;100.00
38612;BME280;24368;52.156;20.788;2023-04-09T23:44:47;101243.19;;;7.95;100.00
38612;BME280;24368;52.156;20.788;2023-04-09T23:49:50;101239.79;;;7.91;100.00
38612;BME280;24368;52.156;20.788;2023-04-09T23:54:51;101240.20;;;7.79;100.00
38612;BME280;24368;52.156;20.788;2023-04-09T23:59:53;101244.60;;;7.62;100.00
